Time;durP1;ratioP1;P1;durP2;ratioP2;P2;SDS_P1;SDS_P2;PMS_P1;PMS_P2;Temp;Humidity;BMP_temperature;BMP_pressure;BME280_temperature;BME280_humidity;BME280_pressure;Samples;Min_cycle;Max_cycle;Signal;HPM_P1;HPM_P2
2023/10/13 00:00:41;;;;;;;0.40;0.22;;;16.30;99.90;;;;;;5010272;28;20436;-59
2023/10/13 00:03:14;;;;;;;0.88;0.60;;;16.30;99.90;;;;;;5009992;28;20049;-59
2023/10/13 00:05:42;;;;;;;1.00;0.32;;;16.30;99.90;;;;;;5018313;28;20108;-58
2023/10/13 00:08:09;;;;;;;2.90;0.80;;;16.30;99.90;;;;;;5009180;28;20049;-59
2023/10/13 00:10:36;;;;;;;2.28;0.45;;;16.30;99.90;;;;;;5020607;28;20045;-60
2023/10/13 00:15:57;;;;;;;3.40;0.60;;;16.30;99.90;;;;;;5020679;28;20053;-59
2023/10/13 00:18:33;;;;;;;4.85;0.50;;;16.30;99.90;;;;;;5009743;28;20515;-60
2023/10/13 00:21:03;;;;;;;1.77;0.38;;;16.20;99.90;;;;;;5022936;28;20107;-59
2023/10/13 00:23:32;;;;;;;0.43;0.32;;;16.20;99.90;;;;;;5012454;28;20216;-59
2023/10/13 00:26:02;;;;;;;1.88;0.40;;;16.20;99.90;;;;;;5011785;28;20084;-60
2023/10/13 00:28:46;;;;;;;0.52;0.43;;;16.20;99.90;;;;;;5022510;28;20053;-58
2023/10/13 00:31:14;;;;;;;2.25;0.45;;;16.20;99.90;;;;;;5021116;28;20045;-59
2023/10/13 00:33:44;;;;;;;3.17;0.43;;;16.10;99.90;;;;;;5009454;28;20153;-59
2023/10/13 00:36:19;;;;;;;1.85;0.55;;;16.10;99.90;;;;;;5010673;28;20371;-59
2023/10/13 00:38:48;;;;;;;1.50;0.60;;;16.10;99.90;;;;;;5006512;28;20057;-59
2023/10/13 00:41:16;;;;;;;1.30;0.57;;;16.10;99.90;;;;;;4669960;28;10000201;-60
2023/10/13 00:44:07;;;;;;;0.75;0.50;;;16.10;99.90;;;;;;5008542;28;20046;-59
2023/10/13 00:46:35;;;;;;;1.63;0.70;;;16.10;99.90;;;;;;5009030;28;20096;-60
2023/10/13 00:49:08;;;;;;;1.75;0.32;;;16.10;99.90;;;;;;5021744;28;20493;-60
2023/10/13 00:51:35;;;;;;;2.00;0.52;;;16.10;99.90;;;;;;5021579;28;20057;-59
2023/10/13 00:54:07;;;;;;;0.32;0.30;;;16.10;99.90;;;;;;5024022;28;20050;-59
2023/10/13 00:56:40;;;;;;;1.38;0.82;;;16.10;99.90;;;;;;5018721;28;20081;-59
2023/10/13 00:59:09;;;;;;;2.63;0.60;;;16.10;99.90;;;;;;4992822;28;20050;-59
2023/10/13 01:01:36;;;;;;;0.70;0.30;;;16.10;99.90;;;;;;5023541;28;20417;-59
2023/10/13 01:04:08;;;;;;;0.40;0.22;;;16.10;99.90;;;;;;5008992;28;20250;-60
2023/10/13 01:06:37;;;;;;;0.77;0.38;;;16.20;99.90;;;;;;5014586;28;20129;-60
2023/10/13 01:09:17;;;;;;;1.95;0.30;;;16.20;99.90;;;;;;5011794;28;20132;-59
2023/10/13 01:11:55;;;;;;;0.98;0.50;;;16.20;99.90;;;;;;5015709;28;20045;-60
2023/10/13 01:14:23;;;;;;;1.17;0.52;;;16.30;99.90;;;;;;5022437;28;20111;-61
2023/10/13 01:16:52;;;;;;;3.53;0.55;;;16.30;99.90;;;;;;5022416;28;20045;-60
2023/10/13 01:19:24;;;;;;;3.80;0.28;;;16.30;99.90;;;;;;5011449;28;20092;-60
2023/10/13 01:22:01;;;;;;;0.50;0.30;;;16.30;99.90;;;;;;5022389;28;20046;-61
2023/10/13 01:24:34;;;;;;;2.67;0.50;;;16.40;99.90;;;;;;5009690;28;20048;-60
2023/10/13 01:27:17;;;;;;;1.85;0.60;;;16.40;99.90;;;;;;5012606;28;20060;-60
2023/10/13 01:29:50;;;;;;;6.03;0.93;;;16.50;99.90;;;;;;5011706;28;20560;-60
2023/10/13 01:32:18;;;;;;;7.13;1.45;;;16.50;99.90;;;;;;5022539;28;20326;-61
2023/10/13 01:34:49;;;;;;;4.80;1.77;;;16.60;99.90;;;;;;5007589;28;20046;-61
2023/10/13 01:37:16;;;;;;;7.72;2.72;;;16.50;99.90;;;;;;5001846;28;20053;-60
2023/10/13 01:39:47;;;;;;;6.60;2.47;;;16.50;99.90;;;;;;5013416;28;20056;-60
2023/10/13 01:42:21;;;;;;;10.40;2.38;;;16.50;99.90;;;;;;5011266;28;20048;-59
2023/10/13 01:44:49;;;;;;;17.90;2.80;;;16.50;99.90;;;;;;5001234;28;20053;-59
2023/10/13 01:47:16;;;;;;;8.02;2.78;;;16.40;99.90;;;;;;5008501;28;20060;-59
2023/10/13 01:49:47;;;;;;;16.88;3.65;;;16.40;99.90;;;;;;5017182;28;20129;-59
2023/10/13 01:52:17;;;;;;;5.88;2.95;;;16.40;99.90;;;;;;5007714;28;20041;-59
2023/10/13 01:54:45;;;;;;;14.27;4.00;;;16.30;99.90;;;;;;5012188;28;20045;-60
2023/10/13 01:57:14;;;;;;;16.70;4.32;;;16.30;99.90;;;;;;5009838;28;20054;-60
2023/10/13 01:59:43;;;;;;;12.15;3.25;;;16.20;99.90;;;;;;5011618;28;20041;-60
2023/10/13 02:02:14;;;;;;;13.15;3.80;;;16.10;99.90;;;;;;5017917;28;20057;-59
2023/10/13 02:04:55;;;;;;;11.18;3.78;;;16.10;99.90;;;;;;5024606;28;20056;-60
2023/10/13 02:07:27;;;;;;;11.65;3.92;;;16.00;99.90;;;;;;5004666;28;20050;-60
2023/10/13 02:09:54;;;;;;;13.73;3.92;;;16.00;99.90;;;;;;5017766;28;20078;-60
2023/10/13 02:12:35;;;;;;;16.40;4.97;;;16.00;99.90;;;;;;5004913;28;20053;-59
2023/10/13 02:15:04;;;;;;;18.13;4.28;;;16.00;99.90;;;;;;5005699;28;20132;-59
2023/10/13 02:17:41;;;;;;;11.80;3.78;;;16.00;99.90;;;;;;5006177;28;20041;-59
2023/10/13 02:20:14;;;;;;;11.40;3.80;;;16.00;99.90;;;;;;5002438;28;20105;-59
2023/10/13 02:22:48;;;;;;;13.57;4.35;;;16.00;99.90;;;;;;5004262;28;20053;-59
2023/10/13 02:28:13;;;;;;;11.57;3.65;;;16.00;99.90;;;;;;5007246;28;20050;-61
2023/10/13 02:30:44;;;;;;;12.05;4.65;;;16.00;99.90;;;;;;5018596;28;20498;-60
2023/10/13 02:33:12;;;;;;;10.55;3.95;;;16.00;99.90;;;;;;5010969;28;20081;-59
2023/10/13 02:35:50;;;;;;;14.15;3.92;;;16.00;99.90;;;;;;5019510;28;20491;-59
2023/10/13 02:38:26;;;;;;;16.83;5.10;;;16.00;99.90;;;;;;5011545;28;20240;-60
2023/10/13 02:40:54;;;;;;;18.20;5.30;;;16.00;99.90;;;;;;5019765;28;20404;-60
2023/10/13 02:43:22;;;;;;;11.77;4.65;;;16.00;99.90;;;;;;5011057;28;20057;-60
2023/10/13 02:45:59;;;;;;;14.52;5.07;;;15.90;99.90;;;;;;5010514;28;20121;-60
2023/10/13 02:48:30;;;;;;;12.75;4.63;;;15.90;99.90;;;;;;5010860;28;20085;-63
2023/10/13 02:51:01;;;;;;;16.63;4.68;;;15.90;99.90;;;;;;5022378;28;20112;-59
2023/10/13 02:53:28;;;;;;;21.42;6.07;;;15.90;99.90;;;;;;5011477;28;20050;-60
2023/10/13 02:55:58;;;;;;;23.10;6.43;;;15.90;99.90;;;;;;5022318;28;20045;-59
2023/10/13 02:58:30;;;;;;;18.42;5.38;;;16.00;99.90;;;;;;5010847;28;20054;-59
2023/10/13 03:01:03;;;;;;;18.25;6.20;;;16.00;99.90;;;;;;5021704;28;20179;-59
2023/10/13 03:03:30;;;;;;;24.52;6.30;;;16.00;99.90;;;;;;5015505;28;20225;-59
2023/10/13 03:05:59;;;;;;;22.77;5.90;;;16.00;99.90;;;;;;5011718;28;20374;-59
2023/10/13 03:08:27;;;;;;;20.25;5.20;;;16.00;99.90;;;;;;5023783;28;20068;-60
2023/10/13 03:10:54;;;;;;;18.38;6.88;;;16.00;99.90;;;;;;5025411;28;20153;-59
2023/10/13 03:13:21;;;;;;;23.35;6.40;;;16.10;99.90;;;;;;5014378;28;20046;-60
2023/10/13 03:15:48;;;;;;;16.02;6.10;;;16.10;99.90;;;;;;5026171;28;20057;-60
2023/10/13 03:18:18;;;;;;;22.58;5.78;;;16.10;99.90;;;;;;5019314;28;20057;-60
2023/10/13 03:20:50;;;;;;;18.30;5.95;;;16.10;99.90;;;;;;5013688;28;20711;-60
2023/10/13 03:23:17;;;;;;;28.98;7.32;;;16.20;99.90;;;;;;5016672;28;20060;-59
2023/10/13 03:25:44;;;;;;;21.52;6.75;;;16.20;99.90;;;;;;5013667;28;20053;-60
2023/10/13 03:28:13;;;;;;;17.10;5.50;;;16.30;99.90;;;;;;5017049;28;20061;-59
2023/10/13 03:30:43;;;;;;;24.55;6.47;;;16.30;99.90;;;;;;5011375;28;20512;-60
2023/10/13 03:33:11;;;;;;;20.15;6.50;;;16.40;99.90;;;;;;5020891;28;20045;-60
2023/10/13 03:35:42;;;;;;;20.83;5.90;;;16.40;99.90;;;;;;5016053;28;20052;-60
2023/10/13 03:38:18;;;;;;;28.58;6.07;;;16.50;99.90;;;;;;4999754;28;20180;-60
2023/10/13 03:40:48;;;;;;;21.63;6.63;;;16.50;99.90;;;;;;5020773;28;20038;-59
2023/10/13 03:43:21;;;;;;;25.52;6.18;;;16.60;99.90;;;;;;5019475;28;20136;-59
2023/10/13 03:45:52;;;;;;;23.80;6.40;;;16.60;99.90;;;;;;5010948;28;20301;-59
2023/10/13 03:51:15;;;;;;;20.40;5.43;;;16.60;99.90;;;;;;5010789;28;20381;-59
2023/10/13 03:53:54;;;;;;;19.13;5.95;;;16.60;99.90;;;;;;5002245;28;20045;-59
2023/10/13 03:56:26;;;;;;;15.82;4.43;;;16.70;99.90;;;;;;5010699;28;20133;-59
2023/10/13 03:59:00;;;;;;;19.13;5.95;;;16.70;99.90;;;;;;4999054;28;20053;-59
2023/10/13 04:01:46;;;;;;;22.02;6.38;;;16.70;99.90;;;;;;5010817;28;20092;-59
2023/10/13 04:04:15;;;;;;;28.08;6.10;;;16.80;99.90;;;;;;5007494;28;20128;-59
2023/10/13 04:06:51;;;;;;;17.52;6.00;;;16.80;99.90;;;;;;5010445;28;20046;-60
2023/10/13 04:17:26;;;;;;;13.82;4.70;;;16.90;99.90;;;;;;5011447;28;20053;-59
2023/10/13 04:25:52;;;;;;;11.65;5.30;;;17.00;99.90;;;;;;5014643;28;20063;-60
2023/10/13 04:28:50;;;;;;;22.23;5.60;;;17.10;99.90;;;;;;5008303;28;20552;-59
2023/10/13 04:31:12;;;;;;;20.15;4.88;;;17.10;99.90;;;;;;5010042;28;20174;-59
2023/10/13 04:33:52;;;;;;;16.52;5.13;;;17.00;99.90;;;;;;5012721;28;20124;-60
2023/10/13 04:41:23;;;;;;;17.75;5.07;;;17.20;99.90;;;;;;5009154;28;20046;-59
2023/10/13 04:43:56;;;;;;;21.05;5.55;;;17.20;99.90;;;;;;5015701;28;20041;-59
2023/10/13 04:47:17;;;;;;;19.75;5.82;;;17.20;99.90;;;;;;5011053;28;20111;-59
2023/10/13 04:51:59;;;;;;;23.23;5.85;;;17.30;99.90;;;;;;5000382;28;20038;-60
2023/10/13 04:54:33;;;;;;;19.08;5.82;;;17.30;99.90;;;;;;5018438;28;20076;-58
2023/10/13 05:05:45;;;;;;;22.63;5.55;;;17.40;99.90;;;;;;5009554;28;20046;-59
2023/10/13 05:49:49;;;;;;;23.10;5.82;;;17.90;99.90;;;;;;5002234;28;20053;-59
2023/10/13 05:52:20;;;;;;;27.40;6.05;;;18.00;99.90;;;;;;5005275;28;20041;-60
2023/10/13 06:30:38;;;;;;;34.03;7.65;;;18.40;99.90;;;;;;5013877;28;20077;-58
2023/10/13 06:33:05;;;;;;;29.48;7.25;;;18.50;99.90;;;;;;5009929;28;20068;-57
2023/10/13 06:35:32;;;;;;;27.60;7.20;;;18.50;99.90;;;;;;5010008;28;20081;-57
2023/10/13 06:38:00;;;;;;;25.65;8.25;;;18.60;99.90;;;;;;5019064;28;20038;-58
2023/10/13 06:43:16;;;;;;;20.17;6.47;;;18.60;99.90;;;;;;5010418;28;20052;-57
2023/10/13 06:45:50;;;;;;;31.30;7.70;;;18.60;99.90;;;;;;5001253;28;20054;-58
2023/10/13 06:48:19;;;;;;;30.55;6.38;;;18.70;99.90;;;;;;5009362;28;20042;-58
2023/10/13 06:50:52;;;;;;;28.83;7.05;;;18.70;99.90;;;;;;5011611;28;20092;-59
2023/10/13 06:53:19;;;;;;;26.65;7.45;;;18.80;99.90;;;;;;5022760;28;20079;-59
2023/10/13 06:55:55;;;;;;;31.55;7.43;;;18.80;99.90;;;;;;5015062;28;20370;-58
2023/10/13 06:58:24;;;;;;;24.60;6.82;;;18.80;99.90;;;;;;5008063;28;20283;-59
2023/10/13 07:00:55;;;;;;;21.77;7.53;;;18.90;99.90;;;;;;5009995;28;20038;-58
2023/10/13 07:03:22;;;;;;;32.50;7.22;;;18.80;99.90;;;;;;5019201;28;20129;-58
2023/10/13 07:05:50;;;;;;;32.67;8.25;;;18.70;99.90;;;;;;5009060;28;20084;-59
2023/10/13 07:08:19;;;;;;;29.35;8.27;;;18.60;99.90;;;;;;5000026;28;20057;-58
2023/10/13 07:11:02;;;;;;;26.17;6.35;;;18.50;99.90;;;;;;4998501;28;20049;-58
2023/10/13 07:13:29;;;;;;;28.67;6.47;;;18.50;99.90;;;;;;4999305;28;20115;-58
2023/10/13 07:16:08;;;;;;;25.45;6.57;;;18.40;99.90;;;;;;5014398;28;20046;-59
2023/10/13 07:18:42;;;;;;;31.40;7.68;;;18.40;99.90;;;;;;5011480;28;20042;-58
2023/10/13 07:21:11;;;;;;;32.53;8.13;;;18.40;99.90;;;;;;4995828;28;20041;-59
2023/10/13 07:23:38;;;;;;;32.60;7.93;;;18.50;99.90;;;;;;5014514;28;20046;-59
2023/10/13 07:26:08;;;;;;;25.27;6.60;;;18.50;99.90;;;;;;5017080;28;20045;-59
2023/10/13 07:28:36;;;;;;;26.20;6.13;;;18.70;99.90;;;;;;5023949;28;20053;-58
2023/10/13 07:33:34;;;;;;;26.77;6.50;;;18.70;99.90;;;;;;5022111;28;20042;-59
2023/10/13 07:42:05;;;;;;;26.80;6.13;;;18.90;99.90;;;;;;5007307;28;20061;-58
2023/10/13 07:44:33;;;;;;;29.92;6.47;;;19.00;99.90;;;;;;5021143;28;20056;-58
2023/10/13 07:47:04;;;;;;;27.58;7.57;;;19.00;99.90;;;;;;5011497;28;20147;-58
2023/10/13 07:49:37;;;;;;;22.17;6.28;;;19.10;99.90;;;;;;5014976;28;20042;-60
2023/10/13 07:55:10;;;;;;;21.95;6.18;;;19.00;99.90;;;;;;5020003;28;20068;-58
2023/10/13 07:57:54;;;;;;;24.00;7.03;;;18.80;99.90;;;;;;5009799;28;20053;-58
2023/10/13 08:00:29;;;;;;;32.40;7.93;;;18.70;99.90;;;;;;5014844;28;20129;-58
2023/10/13 08:03:09;;;;;;;27.52;7.25;;;18.80;99.90;;;;;;5009867;28;20141;-58
2023/10/13 08:05:42;;;;;;;39.72;9.10;;;18.80;99.90;;;;;;5009471;28;20068;-60
2023/10/13 08:08:14;;;;;;;32.20;6.43;;;18.80;99.90;;;;;;5006901;28;20053;-58
2023/10/13 08:10:45;;;;;;;19.88;5.90;;;18.80;99.90;;;;;;5015982;28;20884;-58
2023/10/13 08:13:12;;;;;;;16.30;5.95;;;18.90;99.90;;;;;;5012709;28;20048;-58
2023/10/13 08:15:49;;;;;;;19.10;6.35;;;18.90;99.90;;;;;;5012315;28;20594;-58
2023/10/13 08:18:35;;;;;;;20.15;4.90;;;18.90;99.90;;;;;;5008612;28;20052;-58
2023/10/13 08:21:03;;;;;;;15.70;5.47;;;18.90;99.90;;;;;;5015383;28;20128;-58
2023/10/13 08:30:26;;;;;;;15.25;5.25;;;18.90;99.90;;;;;;5009439;28;20485;-58
2023/10/13 08:50:52;;;;;;;14.63;5.60;;;18.10;99.90;;;;;;5022177;28;20089;-58
2023/10/13 09:04:20;;;;;;;18.70;6.72;;;17.90;99.90;;;;;;4999003;28;20040;-58
2023/10/13 09:09:34;;;;;;;14.13;5.88;;;17.80;99.90;;;;;;5016647;28;20061;-59
2023/10/13 09:12:14;;;;;;;16.05;6.13;;;17.80;99.90;;;;;;5006513;28;20129;-60
2023/10/13 09:14:44;;;;;;;13.68;5.90;;;17.80;99.90;;;;;;5016372;28;20045;-59
2023/10/13 09:19:48;;;;;;;13.63;5.60;;;17.80;99.90;;;;;;5008262;28;20469;-59
2023/10/13 09:22:35;;;;;;;16.75;5.90;;;17.80;99.90;;;;;;5008162;28;20134;-58
2023/10/13 09:25:04;;;;;;;19.90;5.85;;;17.80;99.90;;;;;;5022648;28;20404;-59
2023/10/13 09:27:37;;;;;;;24.88;7.50;;;17.80;99.90;;;;;;5009097;28;20060;-57
2023/10/13 09:30:23;;;;;;;18.52;6.18;;;17.80;99.90;;;;;;5017727;28;20045;-57
2023/10/13 09:33:08;;;;;;;16.77;6.63;;;17.90;99.90;;;;;;5009457;28;20103;-59
2023/10/13 09:35:36;;;;;;;20.90;7.53;;;17.90;99.90;;;;;;5001791;28;20042;-58
2023/10/13 09:38:03;;;;;;;13.60;5.10;;;17.90;99.90;;;;;;5025058;28;20100;-57
2023/10/13 09:43:06;;;;;;;10.88;4.75;;;17.90;99.90;;;;;;5005491;28;20068;-59
2023/10/13 09:45:43;;;;;;;16.25;6.32;;;17.90;99.90;;;;;;5016453;28;20404;-58
2023/10/13 09:48:21;;;;;;;17.02;6.20;;;18.00;99.90;;;;;;5019719;28;20123;-58
2023/10/13 09:50:48;;;;;;;15.07;4.68;;;17.90;99.90;;;;;;5007777;28;20293;-60
2023/10/13 09:53:18;;;;;;;11.02;4.85;;;18.00;99.90;;;;;;5006586;28;20042;-58
2023/10/13 09:55:48;;;;;;;12.10;4.40;;;17.90;99.90;;;;;;4996918;28;20057;-58
2023/10/13 09:58:15;;;;;;;9.30;4.68;;;17.90;99.90;;;;;;5008136;28;20137;-58
2023/10/13 10:01:09;;;;;;;14.85;4.80;;;17.90;99.90;;;;;;5015651;28;20101;-58
2023/10/13 10:04:07;;;;;;;9.63;4.27;;;17.90;99.90;;;;;;5007759;28;20356;-58
2023/10/13 10:06:44;;;;;;;11.02;4.03;;;17.90;99.90;;;;;;5011075;28;20706;-58
2023/10/13 10:09:11;;;;;;;10.48;3.95;;;17.90;99.90;;;;;;5010092;28;20046;-59
2023/10/13 10:11:54;;;;;;;9.35;4.05;;;17.90;99.90;;;;;;5014446;28;20062;-59
2023/10/13 10:14:47;;;;;;;12.82;5.28;;;18.00;99.90;;;;;;5022805;28;20096;-58
2023/10/13 10:17:14;;;;;;;15.40;5.65;;;18.00;99.90;;;;;;5026477;28;20291;-58
2023/10/13 10:19:59;;;;;;;9.05;4.35;;;18.00;99.90;;;;;;5014719;28;20190;-59
2023/10/13 10:22:36;;;;;;;10.73;3.53;;;18.10;99.90;;;;;;5016086;28;20081;-58
2023/10/13 10:25:21;;;;;;;15.82;5.45;;;18.20;99.90;;;;;;5012743;28;20064;-58
2023/10/13 10:28:00;;;;;;;12.63;3.97;;;18.20;99.90;;;;;;5019869;28;20049;-59
2023/10/13 10:30:33;;;;;;;11.88;4.10;;;18.20;99.90;;;;;;5019928;28;20103;-59
2023/10/13 10:33:00;;;;;;;15.02;4.97;;;18.20;99.90;;;;;;5006646;28;20306;-58
2023/10/13 10:35:32;;;;;;;9.27;4.03;;;18.30;99.90;;;;;;5013893;28;20489;-62
2023/10/13 10:38:24;;;;;;;11.48;3.85;;;18.30;99.90;;;;;;5010256;28;20046;-64
2023/10/13 10:41:06;;;;;;;11.15;4.00;;;18.40;99.90;;;;;;5016286;28;20308;-59
2023/10/13 10:43:42;;;;;;;13.05;4.28;;;18.40;99.90;;;;;;5007810;28;20496;-58
2023/10/13 10:46:12;;;;;;;10.68;4.38;;;18.50;99.90;;;;;;5017098;28;20408;-58
2023/10/13 10:48:47;;;;;;;12.65;4.60;;;18.50;99.90;;;;;;5007611;28;20045;-63
2023/10/13 10:53:49;;;;;;;14.60;5.18;;;18.60;99.90;;;;;;5011725;28;20108;-58
2023/10/13 10:56:20;;;;;;;12.23;4.43;;;18.60;99.90;;;;;;5019091;28;20095;-58
2023/10/13 10:58:48;;;;;;;9.63;4.07;;;18.70;99.90;;;;;;5013567;28;20050;-59
2023/10/13 11:01:20;;;;;;;8.85;3.90;;;18.70;99.90;;;;;;5011685;28;20045;-58
2023/10/13 11:03:59;;;;;;;13.67;5.17;;;18.80;99.90;;;;;;5024765;28;20057;-58
2023/10/13 11:06:26;;;;;;;12.73;3.88;;;18.80;99.90;;;;;;5016594;28;20060;-59
2023/10/13 11:09:03;;;;;;;15.10;4.38;;;18.90;99.90;;;;;;5013893;28;20135;-59
2023/10/13 11:11:35;;;;;;;13.30;4.47;;;19.00;99.90;;;;;;5007863;28;20053;-59
2023/10/13 11:14:17;;;;;;;16.92;5.50;;;19.10;99.90;;;;;;5021604;28;20042;-60
2023/10/13 11:16:50;;;;;;;15.30;5.53;;;19.20;99.90;;;;;;5014979;28;20045;-59
2023/10/13 11:19:25;;;;;;;22.60;7.32;;;19.30;99.90;;;;;;5020648;28;20046;-59
2023/10/13 11:21:55;;;;;;;12.40;4.93;;;19.30;99.90;;;;;;5011333;28;20049;-59
2023/10/13 11:24:22;;;;;;;25.33;5.32;;;19.40;99.90;;;;;;5009710;28;20121;-59
2023/10/13 11:26:49;;;;;;;26.95;5.85;;;19.40;99.90;;;;;;5009429;28;20156;-59
2023/10/13 11:29:20;;;;;;;15.68;6.35;;;19.40;99.90;;;;;;5008319;28;20120;-58
2023/10/13 11:31:57;;;;;;;18.98;5.43;;;19.50;99.90;;;;;;5026013;28;20116;-58
2023/10/13 11:34:25;;;;;;;21.50;5.85;;;19.50;99.90;;;;;;5020815;28;20478;-58
2023/10/13 11:36:52;;;;;;;22.70;5.85;;;19.60;99.90;;;;;;5009347;28;20101;-58
2023/10/13 11:39:25;;;;;;;22.50;5.82;;;19.70;99.90;;;;;;5009710;28;20049;-59
2023/10/13 11:41:55;;;;;;;15.13;5.22;;;19.80;99.90;;;;;;5011110;28;20045;-58
2023/10/13 11:46:55;;;;;;;18.38;4.65;;;20.00;99.90;;;;;;5025218;28;20295;-59
2023/10/13 11:52:09;;;;;;;18.60;5.40;;;20.20;99.90;;;;;;5011209;28;20059;-57
2023/10/13 11:54:41;;;;;;;19.42;4.60;;;20.20;99.90;;;;;;5011587;28;20101;-59
2023/10/13 11:57:08;;;;;;;15.70;4.88;;;20.10;99.90;;;;;;5010179;28;20584;-59
2023/10/13 11:59:44;;;;;;;20.63;4.78;;;20.10;99.90;;;;;;5021568;28;20433;-58
2023/10/13 12:04:51;;;;;;;16.58;4.47;;;20.20;99.90;;;;;;5021431;28;20049;-58
2023/10/13 12:07:26;;;;;;;14.60;3.95;;;20.20;99.90;;;;;;5009810;28;20137;-62
2023/10/13 12:12:26;;;;;;;16.27;4.43;;;20.20;99.90;;;;;;5010447;28;20283;-58
2023/10/13 12:14:57;;;;;;;16.00;4.25;;;20.20;99.90;;;;;;5006859;28;20046;-59
2023/10/13 12:17:31;;;;;;;16.02;4.13;;;20.30;99.90;;;;;;5010714;28;20310;-59
2023/10/13 12:20:04;;;;;;;20.58;3.60;;;20.20;99.90;;;;;;5012946;28;20049;-61
2023/10/13 12:22:51;;;;;;;15.00;3.88;;;20.10;99.90;;;;;;5023197;28;20045;-59
2023/10/13 12:28:18;;;;;;;12.63;3.03;;;20.10;99.90;;;;;;5006457;28;20088;-61
2023/10/13 12:30:48;;;;;;;21.55;4.57;;;20.10;99.90;;;;;;5015207;28;20409;-59
2023/10/13 12:33:24;;;;;;;16.02;4.60;;;20.10;99.90;;;;;;5010343;28;20084;-61
2023/10/13 12:52:19;;;;;;;19.13;4.50;;;20.00;99.90;;;;;;5017565;28;20061;-62
2023/10/13 12:54:47;;;;;;;15.15;4.25;;;20.10;99.90;;;;;;5009170;28;20054;-58
2023/10/13 12:57:17;;;;;;;21.73;4.50;;;20.00;99.90;;;;;;5009595;28;20058;-60
2023/10/13 12:59:43;;;;;;;25.40;3.97;;;20.00;99.90;;;;;;5008191;28;20073;-58
2023/10/13 13:02:15;;;;;;;20.90;3.60;;;20.10;99.90;;;;;;5010063;28;20046;-58
2023/10/13 13:04:47;;;;;;;21.58;4.07;;;20.20;99.90;;;;;;5006423;28;20124;-58
2023/10/13 13:07:14;;;;;;;20.20;4.28;;;20.20;99.90;;;;;;5017151;28;20337;-58
2023/10/13 13:09:41;;;;;;;15.40;3.30;;;20.20;99.90;;;;;;5010985;28;20038;-58
2023/10/13 13:12:08;;;;;;;15.90;3.35;;;20.20;99.90;;;;;;5009787;28;20046;-59
2023/10/13 13:14:34;;;;;;;13.32;3.55;;;20.30;99.90;;;;;;5009287;28;20038;-57
2023/10/13 13:17:04;;;;;;;20.10;4.65;;;20.30;99.90;;;;;;5011897;28;20103;-58
2023/10/13 13:19:41;;;;;;;16.08;2.92;;;20.20;99.90;;;;;;5022046;28;20053;-58
2023/10/13 13:22:15;;;;;;;19.85;4.00;;;20.20;99.90;;;;;;5019841;28;20046;-58
2023/10/13 13:24:43;;;;;;;21.02;4.07;;;20.10;99.90;;;;;;5007872;28;20045;-57
2023/10/13 13:27:14;;;;;;;17.10;4.13;;;20.20;99.90;;;;;;4996320;28;20132;-58
2023/10/13 13:29:41;;;;;;;13.25;2.50;;;20.20;99.90;;;;;;5001624;28;20686;-58
2023/10/13 13:32:19;;;;;;;16.70;3.60;;;20.20;99.90;;;;;;5006947;28;20057;-58
2023/10/13 13:34:54;;;;;;;15.50;2.70;;;20.20;99.90;;;;;;5006405;28;20042;-58
2023/10/13 13:37:21;;;;;;;13.48;3.25;;;20.20;99.90;;;;;;5008653;28;20050;-58
2023/10/13 13:39:52;;;;;;;14.52;3.03;;;20.30;99.90;;;;;;5008213;28;20046;-58
2023/10/13 13:42:20;;;;;;;6.78;2.30;;;20.40;99.90;;;;;;5016805;28;20064;-58
2023/10/13 13:44:47;;;;;;;11.80;2.85;;;20.50;99.90;;;;;;5007479;28;20057;-58
2023/10/13 13:47:14;;;;;;;17.30;2.97;;;20.60;99.90;;;;;;5008151;28;20073;-58
2023/10/13 13:49:46;;;;;;;7.88;3.03;;;20.60;99.90;;;;;;5011378;28;20046;-59
2023/10/13 13:52:21;;;;;;;15.88;3.40;;;20.60;99.90;;;;;;5022830;28;20135;-59
2023/10/13 13:54:48;;;;;;;17.10;2.97;;;20.60;99.90;;;;;;5023369;28;20038;-59
2023/10/13 13:57:15;;;;;;;15.48;2.88;;;20.60;99.90;;;;;;5015305;28;20444;-58
2023/10/13 13:59:45;;;;;;;14.07;3.65;;;20.60;99.90;;;;;;5011124;28;20057;-58
2023/10/13 14:02:21;;;;;;;16.98;4.03;;;20.60;99.90;;;;;;5007766;28;20496;-56
2023/10/13 14:04:50;;;;;;;14.60;3.45;;;20.50;99.90;;;;;;5022120;28;20073;-57
2023/10/13 14:07:19;;;;;;;21.35;3.95;;;20.40;99.90;;;;;;5007883;28;20096;-57
2023/10/13 14:09:51;;;;;;;16.05;3.13;;;20.40;99.90;;;;;;5007707;28;20038;-58
2023/10/13 14:12:41;;;;;;;13.90;2.42;;;20.40;99.90;;;;;;5010962;28;20140;-58
2023/10/13 14:15:19;;;;;;;17.05;2.90;;;20.30;99.90;;;;;;5021951;28;20439;-57
2023/10/13 14:17:49;;;;;;;14.50;3.28;;;20.20;99.90;;;;;;5015729;28;20069;-58
2023/10/13 14:20:19;;;;;;;16.58;2.95;;;20.20;99.90;;;;;;5022382;28;20100;-58
2023/10/13 14:22:48;;;;;;;17.70;3.40;;;20.10;99.90;;;;;;5002573;28;20095;-58
2023/10/13 14:25:15;;;;;;;15.55;3.20;;;20.10;99.90;;;;;;5014197;28;20468;-58
2023/10/13 14:27:42;;;;;;;24.17;3.20;;;20.10;99.90;;;;;;5011446;28;20515;-57
2023/10/13 14:30:09;;;;;;;13.00;2.70;;;20.10;99.90;;;;;;5013699;28;20046;-57
2023/10/13 14:32:40;;;;;;;15.27;3.22;;;20.10;99.90;;;;;;5008773;28;20053;-58
2023/10/13 14:35:16;;;;;;;12.80;2.72;;;20.10;99.90;;;;;;5002038;28;20054;-58
2023/10/13 14:37:43;;;;;;;14.27;4.13;;;20.10;99.90;;;;;;5011347;28;20125;-58
2023/10/13 14:40:15;;;;;;;14.10;4.00;;;20.10;99.90;;;;;;5023450;28;20128;-55
2023/10/13 14:42:42;;;;;;;14.63;3.03;;;20.10;99.90;;;;;;5011712;28;20056;-58
2023/10/13 14:45:12;;;;;;;18.33;4.05;;;20.10;99.90;;;;;;5013981;28;20116;-56
2023/10/13 14:47:40;;;;;;;13.70;2.47;;;20.30;99.90;;;;;;5013267;28;20060;-58
2023/10/13 14:50:14;;;;;;;12.25;2.50;;;20.70;99.90;;;;;;5011180;28;20084;-57
2023/10/13 14:52:43;;;;;;;12.55;2.50;;;21.10;99.90;;;;;;5012120;28;20066;-58
2023/10/13 14:55:18;;;;;;;12.10;2.63;;;21.70;99.90;;;;;;5011386;28;20075;-58
2023/10/13 14:57:49;;;;;;;12.23;3.20;;;22.20;99.90;;;;;;5012954;28;20070;-58
2023/10/13 15:00:26;;;;;;;15.95;3.15;;;22.70;99.90;;;;;;5010401;28;20053;-58
2023/10/13 15:02:54;;;;;;;20.08;4.00;;;22.90;99.90;;;;;;5011600;28;20049;-58
2023/10/13 15:05:21;;;;;;;15.63;3.15;;;22.60;99.90;;;;;;5025940;28;20397;-58
2023/10/13 15:07:48;;;;;;;12.15;2.75;;;22.70;99.90;;;;;;5010575;28;20088;-58
2023/10/13 15:10:15;;;;;;;11.70;2.67;;;22.60;99.90;;;;;;5015900;28;20053;-57
2023/10/13 15:12:44;;;;;;;17.63;4.82;;;22.20;99.90;;;;;;5025723;28;20133;-57
2023/10/13 15:15:16;;;;;;;16.38;2.95;;;21.90;99.90;;;;;;5011108;28;20107;-58
2023/10/13 15:17:43;;;;;;;17.27;3.90;;;22.00;99.90;;;;;;5015069;28;20049;-57
2023/10/13 15:20:15;;;;;;;12.32;2.40;;;22.30;99.90;;;;;;5024600;28;20042;-56
2023/10/13 15:22:43;;;;;;;18.17;3.20;;;22.30;99.90;;;;;;5012112;28;20042;-58
2023/10/13 15:25:20;;;;;;;11.43;2.55;;;21.80;99.90;;;;;;5011427;28;20042;-57
2023/10/13 15:27:55;;;;;;;19.02;2.95;;;21.80;99.90;;;;;;5010872;28;20042;-59
2023/10/13 15:30:43;;;;;;;12.80;3.53;;;22.20;99.90;;;;;;5017641;28;20052;-58
2023/10/13 15:33:11;;;;;;;14.27;4.53;;;22.70;99.90;;;;;;5010672;28;20054;-58
2023/10/13 15:35:42;;;;;;;19.90;3.85;;;23.10;99.90;;;;;;5018778;28;20045;-58
2023/10/13 15:38:12;;;;;;;14.48;2.90;;;22.90;99.90;;;;;;5014736;28;20049;-57
2023/10/13 15:40:44;;;;;;;13.50;2.80;;;23.10;99.90;;;;;;5016034;28;20046;-58
2023/10/13 15:43:12;;;;;;;13.43;2.95;;;23.10;99.90;;;;;;5013402;28;20042;-58
2023/10/13 15:45:39;;;;;;;13.13;2.88;;;22.70;99.90;;;;;;5011380;28;20057;-57
2023/10/13 15:48:06;;;;;;;14.45;3.08;;;22.80;99.90;;;;;;5017827;28;20484;-58
2023/10/13 15:50:39;;;;;;;12.68;2.97;;;23.10;99.90;;;;;;5016903;28;20053;-57
2023/10/13 15:53:07;;;;;;;14.30;2.63;;;23.20;99.90;;;;;;5014086;28;20147;-58
2023/10/13 15:55:37;;;;;;;9.10;2.22;;;23.10;99.90;;;;;;5011952;28;20096;-57
2023/10/13 15:58:07;;;;;;;17.17;3.10;;;22.50;99.90;;;;;;5012318;28;20069;-56
2023/10/13 16:00:35;;;;;;;12.48;2.33;;;22.20;99.90;;;;;;5009047;28;20073;-58
2023/10/13 16:03:09;;;;;;;11.00;2.72;;;22.40;99.90;;;;;;5018664;28;20049;-58
2023/10/13 16:05:38;;;;;;;11.57;1.83;;;22.80;99.90;;;;;;5018436;28;20046;-58
2023/10/13 16:08:10;;;;;;;7.07;3.05;;;22.80;99.90;;;;;;5015657;28;20045;-58
2023/10/13 16:10:39;;;;;;;13.35;2.67;;;22.50;99.90;;;;;;5012905;28;20042;-58
2023/10/13 16:13:09;;;;;;;11.30;2.45;;;22.20;99.90;;;;;;5009165;28;20084;-58
2023/10/13 16:15:42;;;;;;;12.43;2.38;;;21.70;99.90;;;;;;5008600;28;20437;-57
2023/10/13 16:18:10;;;;;;;13.77;1.85;;;21.20;99.90;;;;;;5019897;28;20057;-58
2023/10/13 16:20:38;;;;;;;9.35;3.13;;;20.80;99.90;;;;;;5007214;28;20073;-58
2023/10/13 16:23:08;;;;;;;11.57;2.92;;;20.70;99.90;;;;;;5008536;28;20118;-58
2023/10/13 16:25:36;;;;;;;7.70;1.80;;;20.40;99.90;;;;;;5029129;28;20054;-58
2023/10/13 16:28:03;;;;;;;14.70;2.50;;;20.30;99.90;;;;;;5016254;28;20049;-58